createdAt,value
2019-01-09T00:01:16.534Z,1.90
2019-01-09T00:02:52.814Z,1.90
2019-01-09T00:04:30.289Z,1.90
2019-01-09T00:06:06.418Z,1.90
2019-01-09T00:07:42.621Z,1.90
2019-01-09T00:09:18.887Z,1.90
2019-01-09T00:10:55.074Z,1.90
2019-01-09T00:12:31.239Z,2.00
2019-01-09T00:14:07.605Z,2.00
2019-01-09T00:15:43.723Z,2.00
2019-01-09T00:17:21.140Z,2.00
2019-01-09T00:18:57.358Z,2.00
2019-01-09T00:20:33.545Z,2.00
2019-01-09T00:22:09.565Z,2.00
2019-01-09T00:23:45.754Z,2.00
2019-01-09T00:25:21.985Z,2.00
2019-01-09T00:26:58.152Z,2.00
2019-01-09T00:28:34.345Z,2.00
2019-01-09T00:30:10.786Z,2.00
2019-01-09T00:31:46.914Z,2.00
2019-01-09T00:33:23.292Z,2.00
2019-01-09T00:34:59.443Z,1.90
2019-01-09T00:36:35.729Z,1.90
2019-01-09T00:38:11.998Z,1.90
2019-01-09T00:39:48.218Z,1.90
2019-01-09T00:41:25.331Z,1.80
2019-01-09T00:43:01.651Z,1.80
2019-01-09T00:44:37.838Z,1.80
2019-01-09T00:46:14.157Z,1.90
2019-01-09T00:47:50.288Z,1.80
2019-01-09T00:49:26.469Z,1.80
2019-01-09T00:51:02.687Z,1.90
2019-01-09T00:52:39.186Z,1.90
2019-01-09T00:54:16.748Z,1.90
2019-01-09T00:55:52.989Z,1.90
2019-01-09T00:57:29.278Z,1.90
2019-01-09T00:59:05.468Z,1.90
2019-01-09T01:00:41.698Z,1.90
2019-01-09T01:02:28.695Z,1.90
2019-01-09T01:04:32.539Z,1.90
2019-01-09T01:06:58.403Z,1.90
2019-01-09T01:09:11.890Z,1.90
2019-01-09T01:11:39.024Z,1.90
2019-01-09T01:13:51.320Z,2.00
2019-01-09T01:16:18.699Z,2.00
2019-01-09T01:18:10.379Z,2.00
2019-01-09T01:20:35.389Z,1.90
2019-01-09T01:22:42.549Z,2.00
2019-01-09T01:25:02.613Z,1.90
2019-01-09T01:27:29.138Z,1.90
2019-01-09T01:29:31.030Z,1.90
2019-01-09T01:31:41.664Z,1.90
2019-01-09T01:33:37.726Z,1.90
2019-01-09T01:35:39.540Z,1.90
2019-01-09T01:37:53.356Z,1.90
2019-01-09T01:40:01.373Z,1.80
2019-01-09T01:42:15.609Z,1.80
2019-01-09T01:44:08.074Z,1.80
2019-01-09T01:45:57.444Z,1.80
2019-01-09T01:47:59.143Z,1.80
2019-01-09T01:50:22.356Z,1.80
2019-01-09T01:52:40.661Z,1.80
2019-01-09T01:54:50.511Z,1.90
2019-01-09T01:57:01.262Z,1.90
2019-01-09T01:58:51.534Z,1.80
2019-01-09T02:01:00.248Z,1.80
2019-01-09T02:03:42.132Z,1.80
2019-01-09T02:05:49.797Z,1.70
2019-01-09T02:08:00.699Z,1.70
2019-01-09T02:10:18.496Z,1.70
2019-01-09T02:12:20.110Z,1.70
2019-01-09T02:14:13.055Z,1.70
2019-01-09T02:16:07.266Z,1.70
2019-01-09T02:18:05.815Z,1.70
2019-01-09T02:20:24.417Z,1.70
2019-01-09T02:22:47.770Z,1.70
2019-01-09T02:25:02.074Z,1.70
2019-01-09T02:26:55.548Z,1.70
2019-01-09T02:29:07.831Z,1.70
2019-01-09T02:31:27.958Z,1.60
2019-01-09T02:33:04.106Z,1.60
2019-01-09T02:34:40.177Z,1.60
2019-01-09T02:36:16.393Z,1.60
2019-01-09T02:37:52.439Z,1.60
2019-01-09T02:39:28.671Z,1.60
2019-01-09T02:41:04.716Z,1.60
2019-01-09T02:42:40.836Z,1.60
2019-01-09T02:44:16.925Z,1.60
2019-01-09T02:45:52.971Z,1.60
2019-01-09T02:47:29.147Z,1.60
2019-01-09T02:49:05.375Z,1.60
2019-01-09T02:50:41.624Z,1.60
2019-01-09T02:52:17.642Z,1.60
2019-01-09T02:53:53.819Z,1.70
2019-01-09T02:55:29.940Z,1.60
2019-01-09T02:57:06.064Z,1.60
2019-01-09T02:58:43.794Z,1.70
2019-01-09T03:00:20.076Z,1.70
2019-01-09T03:01:56.276Z,1.60
2019-01-09T03:03:32.353Z,1.60
2019-01-09T03:05:08.747Z,1.70
2019-01-09T03:06:45.177Z,1.60
2019-01-09T03:08:21.262Z,1.60
2019-01-09T03:09:57.430Z,1.60
2019-01-09T03:11:33.543Z,1.60
2019-01-09T03:13:09.737Z,1.60
2019-01-09T03:14:46.129Z,1.50
2019-01-09T03:16:22.240Z,1.40
2019-01-09T03:17:59.448Z,1.30
2019-01-09T03:19:35.735Z,1.30
2019-01-09T03:21:11.957Z,1.20
2019-01-09T03:22:48.087Z,1.20
2019-01-09T03:24:24.224Z,1.10
2019-01-09T03:26:00.493Z,1.10
2019-01-09T03:27:36.793Z,1.10
2019-01-09T03:29:12.993Z,1.10
2019-01-09T03:30:49.194Z,1.10
2019-01-09T03:32:25.531Z,1.00
2019-01-09T03:34:01.814Z,1.00
2019-01-09T03:35:38.013Z,1.00
2019-01-09T03:37:14.270Z,1.00
2019-01-09T03:38:51.490Z,1.00
2019-01-09T03:40:27.664Z,1.00
2019-01-09T03:42:03.959Z,1.00
2019-01-09T03:43:40.214Z,1.00
2019-01-09T03:45:16.541Z,1.00
2019-01-09T03:46:52.730Z,1.00
2019-01-09T03:48:28.806Z,0.90
2019-01-09T03:50:05.197Z,0.90
2019-01-09T03:51:41.333Z,0.90
2019-01-09T03:53:17.537Z,0.90
2019-01-09T03:54:53.691Z,0.90
2019-01-09T03:56:29.804Z,0.80
2019-01-09T03:58:06.115Z,0.80
2019-01-09T03:59:42.268Z,0.90
2019-01-09T04:01:18.601Z,0.80
2019-01-09T04:02:55.041Z,0.80
2019-01-09T04:04:31.216Z,0.90
2019-01-09T04:06:07.393Z,0.80
2019-01-09T04:07:43.601Z,0.80
2019-01-09T04:09:19.767Z,0.80
2019-01-09T04:10:55.854Z,0.80
2019-01-09T04:12:32.091Z,0.80
2019-01-09T04:14:08.303Z,0.80
2019-01-09T04:15:44.501Z,0.80
2019-01-09T04:17:20.929Z,0.90
2019-01-09T04:18:57.060Z,0.80
2019-01-09T04:20:33.359Z,0.80
2019-01-09T04:22:09.502Z,0.90
2019-01-09T04:23:45.561Z,0.80
2019-01-09T04:25:21.790Z,0.90
2019-01-09T04:26:57.840Z,0.80
2019-01-09T04:28:33.906Z,0.90
2019-01-09T04:30:10.112Z,0.90
2019-01-09T04:31:46.314Z,0.90
2019-01-09T04:33:22.491Z,0.90
2019-01-09T04:34:58.533Z,0.90
2019-01-09T04:36:34.789Z,0.80
2019-01-09T04:38:11.021Z,0.80
2019-01-09T04:39:47.096Z,0.80
2019-01-09T04:41:23.375Z,0.80
2019-01-09T04:42:59.436Z,0.80
2019-01-09T04:44:35.491Z,0.80
2019-01-09T04:46:11.737Z,0.80
2019-01-09T04:47:47.886Z,0.80
2019-01-09T04:49:24.215Z,0.70
2019-01-09T04:51:00.427Z,0.80
2019-01-09T04:52:36.553Z,0.80
2019-01-09T04:54:12.909Z,0.70
2019-01-09T04:55:49.017Z,0.70
2019-01-09T04:57:25.140Z,0.70
2019-01-09T04:59:01.284Z,0.70
2019-01-09T05:00:37.355Z,0.70
2019-01-09T05:02:13.836Z,0.70
2019-01-09T05:03:50.153Z,0.70
2019-01-09T05:05:26.266Z,0.70
2019-01-09T05:07:02.618Z,0.70
2019-01-09T05:08:38.724Z,0.70
2019-01-09T05:10:14.777Z,0.70
2019-01-09T05:11:50.910Z,0.70
2019-01-09T05:13:27.126Z,0.70
2019-01-09T05:15:03.276Z,0.70
2019-01-09T05:16:39.358Z,0.70
2019-01-09T05:18:16.590Z,0.70
2019-01-09T05:19:52.655Z,0.70
2019-01-09T05:21:28.826Z,0.70
2019-01-09T05:23:04.991Z,0.70
2019-01-09T05:24:41.158Z,0.70
2019-01-09T05:26:17.605Z,0.70
2019-01-09T05:27:53.746Z,0.70
2019-01-09T05:29:29.828Z,0.70
2019-01-09T05:31:07.655Z,0.70
2019-01-09T05:32:43.689Z,0.60
2019-01-09T05:34:19.982Z,0.70
2019-01-09T05:35:56.104Z,0.70
2019-01-09T05:37:32.260Z,0.70
2019-01-09T05:39:08.593Z,0.70
2019-01-09T05:40:44.789Z,0.70
2019-01-09T05:42:20.962Z,0.70
2019-01-09T05:43:57.179Z,0.70
2019-01-09T05:45:33.409Z,0.70
2019-01-09T05:47:09.645Z,0.70
2019-01-09T05:48:45.762Z,0.70
2019-01-09T05:50:21.918Z,0.70
2019-01-09T05:51:58.165Z,0.70
2019-01-09T05:53:34.220Z,0.70
2019-01-09T05:55:10.261Z,0.70
2019-01-09T05:56:46.365Z,0.70
2019-01-09T05:58:23.446Z,0.70
2019-01-09T05:59:59.612Z,0.70
2019-01-09T06:01:35.831Z,0.70
2019-01-09T06:03:12.127Z,0.70
2019-01-09T06:04:48.210Z,0.70
2019-01-09T06:06:24.504Z,0.70
2019-01-09T06:08:00.694Z,0.70
2019-01-09T06:09:36.758Z,0.70
2019-01-09T06:11:12.843Z,0.70
2019-01-09T06:12:49.191Z,0.70
2019-01-09T06:14:25.217Z,0.70
2019-01-09T06:16:01.272Z,0.70
2019-01-09T06:17:37.505Z,0.80
2019-01-09T06:19:13.617Z,0.80
2019-01-09T06:20:49.748Z,0.80
2019-01-09T06:22:26.002Z,0.80
2019-01-09T06:24:02.147Z,0.80
2019-01-09T06:25:38.440Z,0.80
2019-01-09T06:27:14.598Z,0.80
2019-01-09T06:28:50.731Z,0.80
2019-01-09T06:30:26.946Z,0.80
2019-01-09T06:32:03.186Z,0.80
2019-01-09T06:33:39.453Z,0.80
2019-01-09T06:35:15.567Z,0.80
2019-01-09T06:36:51.724Z,0.80
2019-01-09T06:38:27.865Z,0.80
2019-01-09T06:40:04.091Z,0.80
2019-01-09T06:41:40.289Z,0.80
2019-01-09T06:43:16.404Z,0.80
2019-01-09T06:44:52.692Z,0.80
2019-01-09T06:46:28.764Z,0.80
2019-01-09T06:48:04.919Z,0.80
2019-01-09T06:49:40.999Z,0.80
2019-01-09T06:51:17.128Z,0.80
2019-01-09T06:52:53.352Z,0.80
2019-01-09T06:54:29.588Z,0.80
2019-01-09T06:56:05.797Z,0.80
2019-01-09T06:57:42.217Z,0.80
2019-01-09T06:59:18.461Z,0.80
2019-01-09T07:00:54.670Z,0.80
2019-01-09T07:02:30.946Z,0.80
2019-01-09T07:04:07.076Z,0.80
2019-01-09T07:05:43.345Z,0.80
2019-01-09T07:07:19.526Z,0.80
2019-01-09T07:08:55.762Z,0.80
2019-01-09T07:10:32.067Z,0.80
2019-01-09T07:12:08.479Z,0.80
2019-01-09T07:13:44.679Z,0.80
2019-01-09T07:15:21.002Z,0.80
2019-01-09T07:16:57.170Z,0.80
2019-01-09T07:18:33.436Z,0.80
2019-01-09T07:20:09.673Z,0.80
2019-01-09T07:21:45.987Z,0.80
2019-01-09T07:23:22.221Z,0.80
2019-01-09T07:24:58.346Z,0.80
2019-01-09T07:26:34.426Z,0.80
2019-01-09T07:28:10.589Z,0.80
2019-01-09T07:29:46.735Z,0.80
2019-01-09T07:31:22.974Z,0.80
2019-01-09T07:32:59.230Z,0.80
2019-01-09T07:34:35.373Z,0.80
2019-01-09T07:36:12.108Z,0.80
2019-01-09T07:37:48.266Z,0.80
2019-01-09T07:39:24.574Z,0.80
2019-01-09T07:41:00.656Z,0.80
2019-01-09T07:42:37.783Z,0.80
2019-01-09T07:44:14.159Z,0.80
2019-01-09T07:45:50.389Z,0.80
2019-01-09T07:47:26.497Z,0.80
2019-01-09T07:49:02.717Z,0.80
2019-01-09T07:50:38.953Z,0.80
2019-01-09T07:52:15.045Z,0.80
2019-01-09T07:53:51.182Z,0.80
2019-01-09T07:55:27.488Z,0.90
2019-01-09T07:57:03.893Z,0.90
2019-01-09T07:58:40.007Z,0.90
2019-01-09T08:00:17.306Z,0.90
2019-01-09T08:01:53.582Z,0.90
2019-01-09T08:03:29.762Z,0.90
2019-01-09T08:05:06.213Z,0.90
2019-01-09T08:06:42.275Z,0.90
2019-01-09T08:08:18.343Z,0.90
2019-01-09T08:09:54.590Z,0.90
2019-01-09T08:11:30.930Z,0.90
2019-01-09T08:13:07.067Z,0.90
2019-01-09T08:14:43.266Z,0.80
2019-01-09T08:16:19.502Z,0.80
2019-01-09T08:17:55.704Z,0.70
2019-01-09T08:19:31.782Z,0.70
2019-01-09T08:21:07.997Z,0.60
2019-01-09T08:22:44.109Z,0.60
2019-01-09T08:24:20.382Z,0.60
2019-01-09T08:25:56.548Z,0.60
2019-01-09T08:27:32.778Z,0.60
2019-01-09T08:29:11.090Z,0.60
2019-01-09T08:30:47.319Z,0.60
2019-01-09T08:32:23.402Z,0.70
2019-01-09T08:34:00.108Z,0.70
2019-01-09T08:35:36.387Z,0.70
2019-01-09T08:37:12.519Z,0.70
2019-01-09T08:38:48.674Z,0.70
2019-01-09T08:40:24.992Z,0.70
2019-01-09T08:42:01.598Z,0.80
2019-01-09T08:43:37.720Z,0.80
2019-01-09T08:45:13.963Z,0.80
2019-01-09T08:46:50.270Z,0.80
2019-01-09T08:48:26.386Z,0.80
2019-01-09T08:50:02.498Z,0.80
2019-01-09T08:51:38.873Z,0.80
2019-01-09T08:53:15.057Z,0.80
2019-01-09T08:54:51.219Z,0.80
2019-01-09T08:56:27.386Z,0.80
2019-01-09T08:58:03.504Z,0.80
2019-01-09T08:59:39.557Z,0.80
2019-01-09T09:01:15.793Z,0.80
2019-01-09T09:02:51.995Z,0.70
2019-01-09T09:04:28.301Z,0.70
2019-01-09T09:06:04.737Z,0.70
2019-01-09T09:07:40.944Z,0.70
2019-01-09T09:09:17.860Z,0.70
2019-01-09T09:10:54.093Z,0.70
2019-01-09T09:12:30.226Z,0.70
2019-01-09T09:14:08.072Z,0.70
2019-01-09T09:15:44.332Z,0.70
2019-01-09T09:17:20.446Z,0.70
2019-01-09T09:18:56.728Z,0.70
2019-01-09T09:20:32.994Z,0.70
2019-01-09T09:22:09.173Z,0.80
2019-01-09T09:23:45.348Z,0.80
2019-01-09T09:25:21.582Z,0.90
2019-01-09T09:26:57.730Z,0.90
2019-01-09T09:28:33.827Z,0.90
2019-01-09T09:30:13.774Z,0.90
2019-01-09T09:31:49.918Z,0.90
2019-01-09T09:33:26.116Z,1.00
2019-01-09T09:35:02.273Z,1.00
2019-01-09T09:36:38.318Z,1.00
2019-01-09T09:38:20.492Z,1.00
2019-01-09T09:39:52.436Z,1.00
2019-01-09T09:41:28.670Z,1.00
2019-01-09T09:43:04.927Z,1.00
2019-01-09T09:44:41.058Z,1.00
2019-01-09T09:46:17.238Z,0.90
2019-01-09T09:47:54.305Z,0.90
2019-01-09T09:49:30.459Z,0.90
2019-01-09T09:51:06.714Z,0.90
2019-01-09T09:52:42.908Z,0.90
2019-01-09T09:54:19.040Z,0.90
2019-01-09T09:55:55.304Z,0.90
2019-01-09T09:57:31.573Z,0.90
2019-01-09T09:59:07.859Z,0.90
2019-01-09T10:00:44.070Z,0.90
2019-01-09T10:02:20.257Z,0.90
2019-01-09T10:03:56.457Z,0.90
2019-01-09T10:05:32.662Z,0.90
2019-01-09T10:07:09.143Z,0.90
2019-01-09T10:08:45.298Z,0.90
2019-01-09T10:10:21.458Z,0.90
2019-01-09T10:11:57.640Z,1.00
2019-01-09T10:13:33.769Z,1.00
2019-01-09T10:15:11.304Z,0.90
2019-01-09T10:16:47.389Z,0.90
2019-01-09T10:18:24.400Z,0.90
2019-01-09T10:20:00.621Z,1.00
2019-01-09T10:21:36.854Z,1.00
2019-01-09T10:23:13.066Z,1.00
2019-01-09T10:24:49.336Z,1.00
2019-01-09T10:26:25.483Z,1.00
2019-01-09T10:28:01.718Z,1.00
2019-01-09T10:29:38.050Z,1.00
2019-01-09T10:31:14.106Z,1.00
2019-01-09T10:32:50.378Z,1.00
2019-01-09T10:34:26.697Z,1.00
2019-01-09T10:36:02.938Z,1.00
2019-01-09T10:37:39.182Z,1.00
2019-01-09T10:39:15.318Z,1.00
2019-01-09T10:40:51.527Z,1.10
2019-01-09T10:42:27.874Z,1.10
2019-01-09T10:44:04.411Z,1.20
2019-01-09T10:45:40.568Z,1.20
2019-01-09T10:47:16.732Z,1.20
2019-01-09T10:48:52.845Z,1.20
2019-01-09T10:50:28.933Z,1.20
2019-01-09T10:52:05.262Z,1.20
2019-01-09T10:53:41.392Z,1.20
2019-01-09T10:55:18.134Z,1.20
2019-01-09T10:56:54.291Z,1.20
2019-01-09T10:58:30.469Z,1.20
2019-01-09T11:00:09.382Z,1.20
2019-01-09T11:01:45.713Z,1.10
2019-01-09T11:03:21.941Z,1.10
2019-01-09T11:04:58.253Z,1.10
2019-01-09T11:06:34.360Z,1.10
2019-01-09T11:08:10.518Z,1.10
2019-01-09T11:09:46.945Z,1.10
2019-01-09T11:11:23.170Z,1.10
2019-01-09T11:12:59.287Z,1.10
2019-01-09T11:14:35.488Z,1.10
2019-01-09T11:16:11.564Z,1.10
2019-01-09T11:17:47.784Z,1.00
2019-01-09T11:19:24.049Z,1.10
2019-01-09T11:21:00.150Z,1.10
2019-01-09T11:22:36.574Z,1.10
2019-01-09T11:24:12.649Z,1.10
2019-01-09T11:25:48.861Z,1.10
2019-01-09T11:27:24.940Z,1.10
2019-01-09T11:29:01.115Z,1.10
2019-01-09T11:30:37.300Z,1.10
2019-01-09T11:32:13.531Z,1.10
2019-01-09T11:33:49.763Z,1.20
2019-01-09T11:35:26.605Z,1.20
2019-01-09T11:37:02.825Z,1.20
2019-01-09T11:38:39.002Z,1.20
2019-01-09T11:40:16.831Z,1.10
2019-01-09T11:41:53.210Z,1.10
2019-01-09T11:43:29.370Z,1.10
2019-01-09T11:45:06.951Z,1.00
2019-01-09T11:46:44.507Z,1.10
2019-01-09T11:48:20.698Z,1.10
2019-01-09T11:49:56.941Z,1.10
2019-01-09T11:51:32.998Z,1.10
2019-01-09T11:53:09.261Z,1.10
2019-01-09T11:54:45.405Z,1.10
2019-01-09T11:56:23.159Z,1.10
2019-01-09T11:57:59.458Z,1.20
2019-01-09T11:59:35.801Z,1.20
2019-01-09T12:01:12.228Z,1.20
2019-01-09T12:02:48.421Z,1.20
2019-01-09T12:04:24.591Z,1.20
2019-01-09T12:06:00.842Z,1.20
2019-01-09T12:07:37.049Z,1.20
2019-01-09T12:09:13.205Z,1.20
2019-01-09T12:10:49.459Z,1.10
2019-01-09T12:12:25.579Z,1.10
2019-01-09T12:14:01.774Z,1.10
2019-01-09T12:15:37.888Z,1.10
2019-01-09T12:17:14.029Z,1.20
2019-01-09T12:18:50.172Z,1.20
2019-01-09T12:20:26.391Z,1.20
2019-01-09T12:22:02.590Z,1.30
2019-01-09T12:23:38.734Z,1.30
2019-01-09T12:25:14.950Z,1.30
2019-01-09T12:26:51.310Z,1.40
2019-01-09T12:28:27.474Z,1.40
2019-01-09T12:30:05.053Z,1.30
2019-01-09T12:31:41.271Z,1.30
2019-01-09T12:33:17.323Z,1.30
2019-01-09T12:34:53.490Z,1.30
2019-01-09T12:36:29.680Z,1.30
2019-01-09T12:38:05.841Z,1.30
2019-01-09T12:39:41.915Z,1.30
2019-01-09T12:41:18.032Z,1.20
2019-01-09T12:42:54.154Z,1.20
2019-01-09T12:44:30.323Z,1.20
2019-01-09T12:46:06.531Z,1.20
2019-01-09T12:47:42.673Z,1.20
2019-01-09T12:49:18.852Z,1.20
2019-01-09T12:50:55.061Z,1.20
2019-01-09T12:52:31.191Z,1.20
2019-01-09T12:54:07.382Z,1.20
2019-01-09T12:55:43.617Z,1.20
2019-01-09T12:57:20.670Z,1.20
2019-01-09T12:58:56.952Z,1.20
2019-01-09T13:00:33.180Z,1.20
2019-01-09T13:02:09.305Z,1.20
2019-01-09T13:03:45.473Z,1.20
2019-01-09T13:05:22.213Z,1.10
2019-01-09T13:06:58.406Z,1.20
2019-01-09T13:08:34.468Z,1.10
2019-01-09T13:10:11.203Z,1.10
2019-01-09T13:11:47.416Z,1.10
2019-01-09T13:13:23.518Z,1.10
2019-01-09T13:14:59.678Z,1.10
2019-01-09T13:16:35.828Z,1.10
2019-01-09T13:18:12.022Z,1.10
2019-01-09T13:19:48.279Z,1.10
2019-01-09T13:21:24.422Z,1.10
2019-01-09T13:23:00.502Z,1.10
2019-01-09T13:24:36.663Z,1.10
2019-01-09T13:26:14.674Z,1.10
2019-01-09T13:27:50.888Z,1.10
2019-01-09T13:29:26.982Z,1.10
2019-01-09T13:31:03.225Z,1.10
2019-01-09T13:32:39.387Z,1.10
2019-01-09T13:34:15.553Z,1.10
2019-01-09T13:35:51.706Z,1.00
2019-01-09T13:37:27.858Z,1.00
2019-01-09T13:39:05.690Z,1.00
2019-01-09T13:40:41.905Z,1.00
2019-01-09T13:42:18.029Z,1.00
2019-01-09T13:43:54.088Z,1.00
2019-01-09T13:45:30.337Z,1.00
2019-01-09T13:47:06.545Z,1.00
2019-01-09T13:48:42.701Z,1.00
2019-01-09T13:50:19.613Z,1.00
2019-01-09T13:51:55.781Z,0.90
2019-01-09T13:53:32.101Z,0.90
2019-01-09T13:55:10.269Z,0.90
2019-01-09T13:56:46.472Z,0.90
2019-01-09T13:58:22.525Z,0.90
2019-01-09T13:59:58.885Z,0.90
2019-01-09T14:01:35.259Z,0.80
2019-01-09T14:03:11.390Z,0.80
2019-01-09T14:04:47.474Z,0.80
2019-01-09T14:06:23.712Z,0.80
2019-01-09T14:07:59.905Z,0.80
2019-01-09T14:09:39.632Z,0.70
2019-01-09T14:11:14.072Z,0.80
2019-01-09T14:12:50.204Z,0.70
2019-01-09T14:14:26.257Z,0.70
2019-01-09T14:16:02.563Z,0.70
2019-01-09T14:17:38.607Z,0.70
2019-01-09T14:19:14.800Z,0.70
2019-01-09T14:20:51.032Z,0.70
2019-01-09T14:22:32.880Z,0.70
2019-01-09T14:24:05.161Z,0.70
2019-01-09T14:25:41.334Z,0.70
2019-01-09T14:27:17.404Z,0.70
2019-01-09T14:28:53.547Z,0.10
2019-01-09T14:30:30.225Z,0.70
2019-01-09T14:32:06.518Z,0.60
2019-01-09T14:33:42.945Z,0.60
2019-01-09T14:35:19.228Z,0.60
2019-01-09T14:36:55.475Z,0.60
2019-01-09T14:38:31.620Z,0.60
2019-01-09T14:40:09.074Z,0.60
2019-01-09T14:41:45.219Z,0.60
2019-01-09T14:43:21.459Z,0.60
2019-01-09T14:44:57.726Z,0.60
2019-01-09T14:46:33.880Z,0.60
2019-01-09T14:48:10.036Z,0.60
2019-01-09T14:49:46.236Z,0.60
2019-01-09T14:51:22.622Z,0.60
2019-01-09T14:52:58.729Z,0.60
2019-01-09T14:54:34.880Z,0.60
2019-01-09T14:56:11.049Z,0.60
2019-01-09T14:57:47.701Z,0.60
2019-01-09T14:59:24.049Z,0.60
2019-01-09T15:01:00.293Z,0.50
2019-01-09T15:02:36.507Z,0.50
2019-01-09T15:04:12.798Z,0.50
2019-01-09T15:05:49.238Z,0.50
2019-01-09T15:07:25.518Z,0.50
2019-01-09T15:09:01.820Z,0.50
2019-01-09T15:10:39.618Z,0.50
2019-01-09T15:12:15.836Z,0.50
2019-01-09T15:13:52.143Z,0.50
2019-01-09T15:15:28.577Z,0.40
2019-01-09T15:17:04.742Z,0.40
2019-01-09T15:18:40.938Z,0.40
2019-01-09T15:20:17.936Z,0.40
2019-01-09T15:21:54.219Z,0.40
2019-01-09T15:23:30.428Z,0.30
2019-01-09T15:25:08.202Z,0.30
2019-01-09T15:26:44.451Z,0.30
2019-01-09T15:28:20.497Z,0.30
2019-01-09T15:29:56.660Z,0.30
2019-01-09T15:31:33.009Z,0.30
2019-01-09T15:33:09.205Z,0.30
2019-01-09T15:34:45.441Z,0.30
2019-01-09T15:36:21.719Z,0.30
2019-01-09T15:37:57.922Z,0.20
2019-01-09T15:39:35.238Z,0.20
2019-01-09T15:41:11.513Z,0.20
2019-01-09T15:42:48.042Z,0.20
2019-01-09T15:44:26.657Z,0.20
2019-01-09T15:46:03.038Z,0.10
2019-01-09T15:47:39.303Z,0.10
2019-01-09T15:49:15.539Z,0.10
2019-01-09T15:50:51.861Z,0.10
2019-01-09T15:52:28.072Z,0.10
2019-01-09T15:54:04.770Z,0.10
2019-01-09T15:55:41.212Z,0.10
2019-01-09T15:57:17.411Z,0.10
2019-01-09T15:58:53.570Z,0.10
2019-01-09T16:00:35.533Z,0.10
2019-01-09T16:02:12.681Z,0.10
2019-01-09T16:03:48.974Z,0.10
2019-01-09T16:05:25.274Z,0.10
2019-01-09T16:07:01.598Z,0.10
2019-01-09T16:08:37.977Z,0.10
2019-01-09T16:10:15.698Z,0.10
2019-01-09T16:11:52.099Z,0.10
2019-01-09T16:13:28.340Z,0.10
2019-01-09T16:15:05.950Z,0.10
2019-01-09T16:16:49.739Z,0.10
2019-01-09T16:18:26.001Z,0.00
2019-01-09T16:20:02.674Z,0.10
2019-01-09T16:21:38.967Z,0.10
2019-01-09T16:23:15.065Z,0.10
2019-01-09T16:24:51.314Z,0.10
2019-01-09T16:26:27.633Z,0.10
2019-01-09T16:28:06.143Z,0.10
2019-01-09T16:29:41.832Z,0.30
2019-01-09T16:31:30.190Z,0.10
2019-01-09T16:33:06.460Z,0.10
2019-01-09T16:34:42.684Z,0.10
2019-01-09T16:36:18.886Z,0.10
2019-01-09T16:37:55.324Z,0.10
2019-01-09T16:39:31.423Z,0.10
2019-01-09T16:41:07.703Z,0.10
2019-01-09T16:42:43.998Z,0.10
2019-01-09T16:44:20.127Z,0.00
2019-01-09T16:45:56.329Z,0.00
2019-01-09T16:47:32.439Z,0.00
2019-01-09T16:49:08.565Z,0.00
2019-01-09T16:50:44.719Z,0.00
2019-01-09T16:52:20.878Z,0.00
2019-01-09T16:53:57.117Z,0.00
2019-01-09T16:55:33.442Z,0.00
2019-01-09T16:57:09.806Z,0.00
2019-01-09T16:58:46.006Z,0.00
2019-01-09T17:00:24.824Z,0.00
2019-01-09T17:02:00.966Z,0.00
2019-01-09T17:03:37.322Z,0.00
2019-01-09T17:05:13.784Z,0.00
2019-01-09T17:06:50.352Z,0.00
2019-01-09T17:08:26.739Z,0.00
2019-01-09T17:10:03.222Z,0.00
2019-01-09T17:11:39.447Z,0.00
2019-01-09T17:13:15.729Z,0.00
2019-01-09T17:14:52.520Z,0.00
2019-01-09T17:16:28.755Z,0.00
2019-01-09T17:18:05.631Z,0.00
2019-01-09T17:19:41.746Z,0.00
2019-01-09T17:21:18.083Z,0.00
2019-01-09T17:22:54.361Z,0.10
2019-01-09T17:24:30.645Z,0.10
2019-01-09T17:26:06.962Z,0.00
2019-01-09T17:27:43.310Z,0.00
2019-01-09T17:29:19.621Z,0.10
2019-01-09T17:30:55.839Z,0.00
2019-01-09T17:32:31.961Z,0.00
2019-01-09T17:34:08.412Z,0.00
2019-01-09T17:35:44.639Z,0.00
2019-01-09T17:37:20.809Z,0.00
2019-01-09T17:38:57.071Z,0.00
2019-01-09T17:40:40.992Z,0.00
2019-01-09T17:42:12.010Z,0.00
2019-01-09T17:43:48.183Z,0.00
2019-01-09T17:45:24.519Z,0.00
2019-01-09T17:47:00.713Z,0.00
2019-01-09T17:48:37.026Z,0.00
2019-01-09T17:50:33.021Z,0.00
2019-01-09T17:52:09.454Z,0.00
2019-01-09T17:53:45.662Z,0.00
2019-01-09T17:55:22.015Z,0.00
2019-01-09T17:56:58.099Z,0.00
2019-01-09T17:58:34.349Z,0.00
2019-01-09T18:00:14.603Z,0.00
2019-01-09T18:01:51.293Z,0.00
2019-01-09T18:03:27.668Z,0.00
2019-01-09T18:05:04.384Z,0.00
2019-01-09T18:06:42.200Z,0.00
2019-01-09T18:08:18.489Z,0.00
2019-01-09T18:09:54.885Z,0.00
2019-01-09T18:11:31.213Z,0.00
2019-01-09T18:13:07.488Z,0.00
2019-01-09T18:14:43.626Z,0.00
2019-01-09T18:16:19.881Z,0.00
2019-01-09T18:17:56.144Z,0.00
2019-01-09T18:19:32.366Z,0.00
2019-01-09T18:21:08.686Z,0.00
2019-01-09T18:22:44.960Z,0.00
2019-01-09T18:24:21.117Z,0.00
2019-01-09T18:25:57.252Z,0.00
2019-01-09T18:27:33.542Z,0.00
2019-01-09T18:29:10.385Z,0.00
2019-01-09T18:31:03.549Z,0.00
2019-01-09T18:32:51.250Z,-0.10
2019-01-09T18:34:57.862Z,0.00
2019-01-09T18:37:22.775Z,-0.10
2019-01-09T18:39:45.968Z,-0.10
2019-01-09T18:41:38.470Z,-0.10
2019-01-09T18:43:48.551Z,-0.10
2019-01-09T18:46:27.318Z,-0.10
2019-01-09T18:48:59.099Z,-0.10
2019-01-09T18:51:21.414Z,-0.10
2019-01-09T18:53:12.294Z,-0.10
2019-01-09T18:54:48.400Z,-0.10
2019-01-09T18:56:24.654Z,-0.10
2019-01-09T18:58:00.782Z,-0.10
2019-01-09T18:59:37.922Z,-0.10
2019-01-09T19:01:14.415Z,-0.10
2019-01-09T19:02:51.275Z,-0.10
2019-01-09T19:04:27.608Z,-0.10
2019-01-09T19:06:03.999Z,-0.10
2019-01-09T19:07:41.983Z,-0.10
2019-01-09T19:09:18.249Z,-0.10
2019-01-09T19:10:54.498Z,-0.10
2019-01-09T19:12:30.650Z,-0.10
2019-01-09T19:14:07.337Z,-0.10
2019-01-09T19:15:43.649Z,-0.10
2019-01-09T19:17:19.725Z,-0.10
2019-01-09T19:18:55.863Z,-0.10
2019-01-09T19:20:32.062Z,-0.10
2019-01-09T19:22:08.269Z,-0.10
2019-01-09T19:23:44.477Z,-0.10
2019-01-09T19:25:21.297Z,-0.10
2019-01-09T19:26:57.570Z,-0.10
2019-01-09T19:28:33.980Z,-0.10
2019-01-09T19:30:21.227Z,-0.10
2019-01-09T19:31:57.614Z,-0.10
2019-01-09T19:33:34.885Z,-0.10
2019-01-09T19:35:11.230Z,-0.10
2019-01-09T19:36:50.223Z,-0.10
2019-01-09T19:38:26.766Z,-0.20
2019-01-09T19:40:02.996Z,-0.20
2019-01-09T19:41:39.741Z,-0.20
2019-01-09T19:43:16.445Z,-0.20
2019-01-09T19:44:53.505Z,-0.20
2019-01-09T19:46:29.738Z,-0.20
2019-01-09T19:48:06.104Z,-0.20
2019-01-09T19:49:42.261Z,-0.20
2019-01-09T19:51:18.449Z,-0.20
2019-01-09T19:52:55.004Z,-0.20
2019-01-09T19:54:31.426Z,-0.20
2019-01-09T19:56:07.786Z,-0.20
2019-01-09T19:57:44.087Z,-0.20
2019-01-09T19:59:20.339Z,-0.20
2019-01-09T20:00:56.602Z,-0.20
2019-01-09T20:02:32.819Z,-0.20
2019-01-09T20:04:09.210Z,-0.20
2019-01-09T20:05:45.518Z,-0.20
2019-01-09T20:07:21.841Z,-0.20
2019-01-09T20:08:57.925Z,-0.20
2019-01-09T20:10:34.485Z,-0.20
2019-01-09T20:12:10.728Z,-0.30
2019-01-09T20:13:46.964Z,-0.30
2019-01-09T20:15:23.494Z,-0.30
2019-01-09T20:16:59.670Z,-0.30
2019-01-09T20:18:35.963Z,-0.30
2019-01-09T20:20:13.960Z,-0.30
2019-01-09T20:21:50.194Z,-0.30
2019-01-09T20:23:26.349Z,-0.30
2019-01-09T20:25:02.548Z,-0.30
2019-01-09T20:26:39.161Z,-0.30
2019-01-09T20:28:15.425Z,-0.30
2019-01-09T20:29:51.666Z,-0.30
2019-01-09T20:31:28.003Z,-0.30
2019-01-09T20:33:04.334Z,-0.30
2019-01-09T20:34:40.574Z,-0.30
2019-01-09T20:36:16.900Z,-0.30
2019-01-09T20:37:53.195Z,-0.30
2019-01-09T20:39:29.511Z,-0.30
2019-01-09T20:41:05.987Z,-0.30
2019-01-09T20:42:42.339Z,-0.30
2019-01-09T20:44:18.736Z,-0.30
2019-01-09T20:45:54.995Z,-0.30
2019-01-09T20:47:31.246Z,-0.30
2019-01-09T20:49:07.599Z,-0.30
2019-01-09T20:50:43.967Z,-0.30
2019-01-09T20:52:21.547Z,-0.30
2019-01-09T20:53:57.853Z,-0.30
2019-01-09T20:55:34.253Z,-0.30
2019-01-09T20:57:11.358Z,-0.30
2019-01-09T20:58:47.638Z,-0.30
2019-01-09T21:00:28.502Z,-0.40
2019-01-09T21:02:04.982Z,-0.40
2019-01-09T21:03:41.632Z,-0.40
2019-01-09T21:05:21.295Z,-0.40
2019-01-09T21:06:57.670Z,-0.40
2019-01-09T21:08:33.968Z,-0.40
2019-01-09T21:10:11.157Z,-0.40
2019-01-09T21:11:47.395Z,-0.40
2019-01-09T21:13:23.661Z,-0.40
2019-01-09T21:14:59.984Z,-0.40
2019-01-09T21:16:36.262Z,-0.40
2019-01-09T21:18:12.698Z,-0.40
2019-01-09T21:19:48.926Z,-0.40
2019-01-09T21:21:25.325Z,-0.40
2019-01-09T21:23:01.533Z,-0.40
2019-01-09T21:24:37.729Z,-0.40
2019-01-09T21:26:13.950Z,-0.40
2019-01-09T21:27:50.309Z,-0.40
2019-01-09T21:29:27.626Z,-0.40
2019-01-09T21:31:03.893Z,-0.40
2019-01-09T21:32:40.118Z,-0.30
2019-01-09T21:34:16.440Z,-0.40
2019-01-09T21:35:52.674Z,-0.40
2019-01-09T21:37:28.957Z,-0.40
2019-01-09T21:39:08.569Z,-0.40
2019-01-09T21:40:44.892Z,-0.40
2019-01-09T21:42:21.255Z,-0.40
2019-01-09T21:43:57.521Z,-0.40
2019-01-09T21:45:33.780Z,-0.40
2019-01-09T21:47:10.180Z,-0.40